Stations météo

Publicité
Vannes/Sene, France (7210): Température de l'air & dewpoint: 10.02.2019 08:00:00 - 16.02.2019 08:00:00 (CET)Vannes/Sene, France (7210): Vitesse du vent & gusts: 10.02.2019 08:00:00 - 16.02.2019 08:00:00 (CET)Vannes/Sene, France (7210): Direction du vent: 10.02.2019 08:00:00 - 16.02.2019 08:00:00 (CET)Vannes/Sene, France (7210): Ensoleillement: 10.02.2019 08:00:00 - 16.02.2019 08:00:00 (CET)Vannes/Sene, France (7210): Quantités de précipitations: 10.02.2019 08:00:00 - 16.02.2019 08:00:00 (CET)
Date & Time tt [°C] td [°C] ff [km/h] ff [knt] fx [km/h] fx [knt] dd sd [min] rr [mm]
16.02.2019 08:00:00 6,2 6,2 2 1 8 4 E 0 0,0
16.02.2019 07:00:00 6,3 6,3 4 2 8 4 SSE 0 -
16.02.2019 06:00:00 6,6 6,6 2 1 11 6 WSW 0 0,0
16.02.2019 05:00:00 6,7 6,7 0 0 9 5 N 0 0,0
16.02.2019 04:00:00 6,7 6,7 4 2 9 5 WSW 0 0,0
16.02.2019 03:00:00 6,5 6,5 4 2 9 5 SSE 0 0,0
16.02.2019 02:00:00 6,7 6,7 4 2 9 5 SW 0 0,0
16.02.2019 01:00:00 7,0 7,0 0 0 8 4 N 0 -
16.02.2019 00:00:00 7,1 7,1 4 2 9 5 W 0 0,0
15.02.2019 23:00:00 5,3 5,3 0 0 5 3 N 0 0,0
15.02.2019 22:00:00 3,8 3,8 2 1 8 4 NE 0 0,0
15.02.2019 21:00:00 3,9 3,6 4 2 5 3 ESE 0 0,0
15.02.2019 20:00:00 5,6 4,7 2 1 8 4 ESE 0 0,0
15.02.2019 19:00:00 7,6 5,6 4 2 9 5 S 0 -
15.02.2019 18:00:00 10,9 6,6 4 2 13 7 SW 48 0,0
15.02.2019 17:00:00 12,5 6,3 8 4 18 10 S 60 0,0
15.02.2019 16:00:00 12,6 6,2 11 6 22 12 S 60 0,0
15.02.2019 15:00:00 12,8 6,8 11 6 18 10 SW 60 0,0
15.02.2019 14:00:00 12,4 6,4 11 6 24 13 SSE 60 0,0
15.02.2019 13:00:00 12,0 6,3 9 5 18 10 SSE 60 -
15.02.2019 12:00:00 10,9 5,8 13 7 21 11 SE 60 0,0
15.02.2019 11:00:00 9,8 5,0 11 6 18 10 SE 60 0,0
15.02.2019 10:00:00 7,8 3,8 8 4 15 8 E 60 0,0
15.02.2019 09:00:00 4,7 2,2 8 4 11 6 ENE 18 0,0
15.02.2019 08:00:00 3,7 1,7 8 4 15 8 ENE 0 0,0
15.02.2019 07:00:00 3,0 1,8 5 3 13 7 E 0 -
15.02.2019 06:00:00 3,6 2,0 9 5 15 8 E 0 0,0
15.02.2019 05:00:00 3,7 2,4 5 3 11 6 E 0 0,0
15.02.2019 04:00:00 4,4 2,6 8 4 11 6 E 0 0,0
15.02.2019 03:00:00 5,1 3,6 8 4 9 5 ENE 0 0,0
15.02.2019 02:00:00 5,5 4,0 5 3 9 5 ENE 0 0,0
15.02.2019 01:00:00 5,0 4,1 5 3 9 5 E 0 -
15.02.2019 00:00:00 4,8 3,6 5 3 9 5 NE 0 0,0
14.02.2019 23:00:00 4,6 4,2 5 3 9 5 ENE 0 0,0
14.02.2019 22:00:00 4,3 4,0 5 3 9 5 ENE 0 0,0
14.02.2019 21:00:00 4,4 3,7 4 2 8 4 NE 0 0,0
14.02.2019 20:00:00 6,1 4,4 4 2 5 3 ESE 0 0,0
14.02.2019 19:00:00 8,4 5,0 4 2 9 5 E 0 -
14.02.2019 18:00:00 11,4 5,5 5 3 15 8 ESE 48 0,0
14.02.2019 17:00:00 12,8 5,5 9 5 16 9 ESE 60 0,0
14.02.2019 16:00:00 12,7 4,9 11 6 18 10 SE 60 0,0
14.02.2019 15:00:00 12,3 5,2 9 5 21 11 SE 60 0,0
14.02.2019 14:00:00 11,2 4,9 13 7 22 12 SSE 60 0,0
14.02.2019 13:00:00 10,6 4,7 11 6 22 12 SE 60 -
14.02.2019 12:00:00 9,1 3,9 13 7 18 10 SE 60 0,0
14.02.2019 11:00:00 7,2 3,1 13 7 21 11 ESE 60 0,0
14.02.2019 10:00:00 4,4 1,8 9 5 16 9 E 60 0,0
14.02.2019 09:00:00 1,7 0,4 8 4 13 7 ENE 18 0,0
14.02.2019 08:00:00 1,1 0,4 8 4 16 9 E 0 0,0
14.02.2019 07:00:00 1,6 0,7 9 5 16 9 E 0 -
14.02.2019 06:00:00 1,5 0,6 5 3 9 5 ENE 0 0,0
14.02.2019 05:00:00 1,4 0,4 5 3 11 6 E 0 0,0
14.02.2019 04:00:00 1,7 0,7 8 4 11 6 E 0 0,0
14.02.2019 03:00:00 3,0 1,2 8 4 11 6 E 0 0,0
14.02.2019 02:00:00 3,4 1,4 5 3 11 6 ENE 0 0,0
14.02.2019 01:00:00 3,7 1,7 5 3 9 5 ENE 0 -
14.02.2019 00:00:00 2,4 1,1 5 3 9 5 NE 0 0,0
13.02.2019 23:00:00 2,9 1,7 4 2 8 4 ENE 0 0,0
13.02.2019 22:00:00 2,8 2,1 5 3 9 5 NNE 0 0,0
13.02.2019 21:00:00 4,6 2,8 5 3 9 5 ENE 0 0,0
13.02.2019 20:00:00 5,2 2,7 8 4 9 5 E 0 0,0
13.02.2019 19:00:00 7,2 2,7 8 4 16 9 E 0 -
13.02.2019 18:00:00 10,2 2,8 8 4 21 11 E 42 0,0
13.02.2019 17:00:00 11,8 2,8 11 6 18 10 E 60 0,0
13.02.2019 16:00:00 11,8 2,3 11 6 18 10 E 60 0,0
13.02.2019 15:00:00 11,5 2,8 9 5 18 10 E 60 0,0
13.02.2019 14:00:00 10,7 3,0 13 7 29 16 ESE 60 0,0
13.02.2019 13:00:00 9,9 2,7 18 10 34 18 ESE 60 -
13.02.2019 12:00:00 9,3 2,6 16 9 29 16 ESE 60 0,0
13.02.2019 11:00:00 7,2 3,2 13 7 18 10 ESE 60 0,0
13.02.2019 10:00:00 4,4 2,9 5 3 11 6 E 60 0,0
13.02.2019 09:00:00 2,4 1,8 5 3 9 5 E 18 0,0
13.02.2019 08:00:00 1,6 1,5 5 3 8 4 ENE 0 0,0
13.02.2019 07:00:00 2,2 1,8 5 3 9 5 NE 0 -
13.02.2019 06:00:00 1,9 1,6 5 3 9 5 E 0 0,0
13.02.2019 05:00:00 2,8 2,5 5 3 9 5 ENE 0 0,0
13.02.2019 04:00:00 2,9 2,8 4 2 8 4 E 0 0,0
13.02.2019 03:00:00 3,1 3,1 5 3 8 4 ENE 0 0,0
13.02.2019 02:00:00 2,2 2,2 5 3 8 4 ENE 0 0,0
13.02.2019 01:00:00 2,1 2,1 4 2 5 3 NE 0 -
13.02.2019 00:00:00 2,5 2,4 2 1 5 3 E 0 0,0
12.02.2019 23:00:00 3,6 3,6 4 2 5 3 NNE 0 0,0
12.02.2019 22:00:00 4,2 4,2 4 2 8 4 NNE 0 0,0
12.02.2019 21:00:00 4,2 4,1 4 2 5 3 ENE 0 0,0
12.02.2019 20:00:00 5,2 4,8 2 1 5 3 SW 0 0,0
12.02.2019 19:00:00 7,7 6,6 4 2 9 5 SSW 0 -
12.02.2019 18:00:00 10,4 7,6 5 3 11 6 SW 42 0,0
12.02.2019 17:00:00 12,2 6,7 8 4 15 8 SW 60 0,0
12.02.2019 16:00:00 13,4 7,4 5 3 15 8 SW 60 0,0
12.02.2019 15:00:00 13,1 7,3 5 3 15 8 SSW 60 0,0
12.02.2019 14:00:00 12,8 8,7 5 3 13 7 SW 48 0,0
12.02.2019 13:00:00 10,6 7,5 4 2 11 6 WSW 36 -
12.02.2019 12:00:00 8,9 6,0 4 2 9 5 ENE 42 0,0
12.02.2019 11:00:00 5,7 4,2 4 2 8 4 N 0 0,0
12.02.2019 10:00:00 4,6 3,4 2 1 9 5 NE 60 0,0
12.02.2019 09:00:00 1,7 1,7 8 4 11 6 E 12 0,0
12.02.2019 08:00:00 1,3 1,2 5 3 9 5 ENE 0 0,0
12.02.2019 07:00:00 0,2 0,2 8 4 9 5 E 0 -
12.02.2019 06:00:00 0,5 0,4 5 3 8 4 NNE 0 0,0
12.02.2019 05:00:00 0,7 0,6 5 3 8 4 NE 0 0,0
12.02.2019 04:00:00 1,3 1,2 4 2 5 3 NE 0 0,0
12.02.2019 03:00:00 1,6 1,3 4 2 5 3 NE 0 0,0
12.02.2019 02:00:00 2,5 2,2 4 2 5 3 N 0 0,0
12.02.2019 01:00:00 2,8 2,7 5 3 8 4 NNE 0 -
12.02.2019 00:00:00 3,0 2,6 4 2 8 4 E 0 0,0
11.02.2019 23:00:00 3,9 3,2 4 2 8 4 ENE 0 0,0
11.02.2019 22:00:00 5,4 4,5 4 2 8 4 NE 0 0,0
11.02.2019 21:00:00 6,8 4,8 5 3 11 6 NE 0 0,0
11.02.2019 20:00:00 8,8 4,4 5 3 13 7 NNE 0 0,0
11.02.2019 19:00:00 10,1 4,9 4 2 9 5 NNW 0 -
11.02.2019 18:00:00 11,5 4,7 5 3 16 9 NW 48 0,0
11.02.2019 17:00:00 12,2 4,2 13 7 24 13 NNW 24 0,0
11.02.2019 16:00:00 12,4 3,9 11 6 28 15 NW 0 0,0
11.02.2019 15:00:00 12,1 3,6 13 7 29 16 NW 24 0,0
11.02.2019 14:00:00 11,9 3,9 16 9 31 17 NW 36 0,0
11.02.2019 13:00:00 11,6 5,9 11 6 29 16 WNW 18 -
11.02.2019 12:00:00 11,3 5,8 15 8 35 19 WNW 36 0,0
11.02.2019 11:00:00 10,3 5,5 13 7 31 17 WNW 42 0,0
11.02.2019 10:00:00 8,7 4,7 15 8 28 15 W 0 0,0
11.02.2019 09:00:00 7,6 4,2 9 5 26 14 WNW 0 0,0
11.02.2019 08:00:00 7,5 3,7 15 8 31 17 W 0 0,0
11.02.2019 07:00:00 6,8 3,8 13 7 24 13 W 0 -
11.02.2019 06:00:00 5,7 2,9 8 4 24 13 WNW 0 0,0
11.02.2019 05:00:00 5,6 2,6 11 6 22 12 W 0 0,0
11.02.2019 04:00:00 4,8 2,0 8 4 16 9 W 0 0,0
11.02.2019 03:00:00 5,9 2,2 8 4 18 10 W 0 0,0
11.02.2019 02:00:00 6,7 2,8 9 5 24 13 WNW 0 0,0
11.02.2019 01:00:00 7,0 3,6 15 8 34 18 W 0 -
11.02.2019 00:00:00 6,5 3,1 13 7 28 15 W 0 0,0
10.02.2019 23:00:00 6,4 2,3 11 6 34 18 WNW 0 0,0
10.02.2019 22:00:00 7,0 2,3 13 7 37 20 W 0 0,0
10.02.2019 21:00:00 6,9 1,0 11 6 34 18 W 0 0,0
10.02.2019 20:00:00 7,7 1,5 18 10 39 21 WNW 0 0,0
10.02.2019 19:00:00 8,0 1,4 13 7 48 26 W 0 -
10.02.2019 18:00:00 9,3 0,2 22 12 48 26 WNW 36 0,0
10.02.2019 17:00:00 10,3 1,1 24 13 52 28 WNW 48 0,0
10.02.2019 16:00:00 9,5 3,7 18 10 48 26 W 12 0,0
10.02.2019 15:00:00 7,9 4,5 24 13 59 32 WNW 6 0,2
10.02.2019 14:00:00 10,0 3,5 26 14 63 34 WNW 42 0,0
10.02.2019 13:00:00 9,7 4,5 29 16 70 38 W 36 -
10.02.2019 12:00:00 9,9 3,0 24 13 63 34 W 54 0,0
10.02.2019 11:00:00 8,8 4,0 18 10 48 26 W 24 0,0
10.02.2019 10:00:00 8,1 4,3 18 10 52 28 W 18 0,0
10.02.2019 09:00:00 7,3 4,9 18 10 67 36 W 6 0,2
10.02.2019 08:00:00 7,7 6,9 11 6 34 18 W 0 0,2

tt = Température de l'air
td = dewpoint
ff = Vitesse du vent
fx = gusts
dd = Direction du vent
sd = Ensoleillement
rr = Quantités de précipitations

stations d'obs. à proximité